Liverpool, Illinois
Current Conditions -  °F | °C
As of 11:54 PM on Friday 28 Nov 2014 (Local Time) from KPIA Reporting Station
Clear Clear  
Wind Chill: -2°   Ceiling: Unl
Heat Index:   Visibility: 10mi
Dew Point: -1°   Wind: 14mph
Humidity: 79%   Direction: 180°S
Pressure: 29.83"   Gusts: NA
Location:  40.39°N, 90°W
Report Text: KPIA 290554Z 18012KT 10SM CLR 03/M01 A2983 RMK AO2 SLP107 T00281006 10044 20028 400441094 58016
Loading
Personal Weather Stations






























Interactive Weather Map New forecast layout! Learn more

10-Day Weather Forecast

Advertisements
Track Severe Weather on mobile